Terminal Aerodrome Forecast
Issued by NWS

Home | Current Version | Previous Version | Text Only | Print | Product List | Glossary On
Versions: 1 2 3 4 5 6 7 8 9 10 11 12 13 14 15 16 17 18 19 20 21 22 23
358
FTUS41 KPBZ 050707 AAA
TAFZZV
TAF AMD
KZZV 050707Z 0507/0606 31005KT P6SM -SHRA OVC015
     FM051500 33008KT P6SM VCSH OVC020
     FM052100 34010KT P6SM VCSH BKN045=

USA.gov is the U.S. government's official web portal to all federal, state and local government web resources and services.